sensor_id;sensor_type;location;lat;lon;timestamp;P1;durP1;ratioP1;P2;durP2;ratioP2
2123;SDS011;1068;52.460;13.528;2023-02-28T00:02:24;19.02;;;13.85;;
2123;SDS011;1068;52.460;13.528;2023-02-28T00:04:50;19.70;;;12.00;;
2123;SDS011;1068;52.460;13.528;2023-02-28T00:07:27;17.98;;;12.98;;
2123;SDS011;1068;52.460;13.528;2023-02-28T00:09:53;15.52;;;13.32;;
2123;SDS011;1068;52.460;13.528;2023-02-28T00:12:20;18.17;;;12.88;;
2123;SDS011;1068;52.460;13.528;2023-02-28T00:14:46;19.92;;;14.27;;
2123;SDS011;1068;52.460;13.528;2023-02-28T00:17:13;16.10;;;12.70;;
2123;SDS011;1068;52.460;13.528;2023-02-28T00:19:39;12.43;;;10.25;;
2123;SDS011;1068;52.460;13.528;2023-02-28T00:22:06;19.63;;;13.35;;
2123;SDS011;1068;52.460;13.528;2023-02-28T00:24:34;14.93;;;11.77;;
2123;SDS011;1068;52.460;13.528;2023-02-28T00:27:00;17.25;;;11.98;;
2123;SDS011;1068;52.460;13.528;2023-02-28T00:29:27;15.85;;;11.48;;
2123;SDS011;1068;52.460;13.528;2023-02-28T00:31:53;14.65;;;10.55;;
2123;SDS011;1068;52.460;13.528;2023-02-28T00:34:20;13.30;;;11.25;;
2123;SDS011;1068;52.460;13.528;2023-02-28T00:36:47;13.07;;;9.90;;
2123;SDS011;1068;52.460;13.528;2023-02-28T00:39:14;11.85;;;9.65;;
2123;SDS011;1068;52.460;13.528;2023-02-28T00:41:42;13.23;;;10.73;;
2123;SDS011;1068;52.460;13.528;2023-02-28T00:44:09;10.88;;;8.70;;
2123;SDS011;1068;52.460;13.528;2023-02-28T00:46:35;13.68;;;9.57;;
2123;SDS011;1068;52.460;13.528;2023-02-28T00:49:02;10.60;;;9.20;;
2123;SDS011;1068;52.460;13.528;2023-02-28T00:51:28;9.77;;;8.68;;
2123;SDS011;1068;52.460;13.528;2023-02-28T00:53:55;11.93;;;9.20;;
2123;SDS011;1068;52.460;13.528;2023-02-28T00:56:22;14.27;;;9.73;;
2123;SDS011;1068;52.460;13.528;2023-02-28T00:58:49;14.50;;;9.20;;
2123;SDS011;1068;52.460;13.528;2023-02-28T01:01:16;11.52;;;8.30;;
2123;SDS011;1068;52.460;13.528;2023-02-28T01:03:42;10.25;;;8.60;;
2123;SDS011;1068;52.460;13.528;2023-02-28T01:06:09;8.70;;;7.43;;
2123;SDS011;1068;52.460;13.528;2023-02-28T01:08:35;9.68;;;7.28;;
2123;SDS011;1068;52.460;13.528;2023-02-28T01:11:06;9.40;;;6.38;;
2123;SDS011;1068;52.460;13.528;2023-02-28T01:13:34;11.05;;;6.53;;
2123;SDS011;1068;52.460;13.528;2023-02-28T01:16:02;7.53;;;6.43;;
2123;SDS011;1068;52.460;13.528;2023-02-28T01:18:29;8.10;;;6.00;;
2123;SDS011;1068;52.460;13.528;2023-02-28T01:20:56;6.13;;;5.47;;
2123;SDS011;1068;52.460;13.528;2023-02-28T01:23:23;8.75;;;7.40;;
2123;SDS011;1068;52.460;13.528;2023-02-28T01:25:50;10.38;;;6.32;;
2123;SDS011;1068;52.460;13.528;2023-02-28T01:28:17;7.55;;;6.65;;
2123;SDS011;1068;52.460;13.528;2023-02-28T01:30:46;8.90;;;6.82;;
2123;SDS011;1068;52.460;13.528;2023-02-28T01:33:15;7.55;;;6.50;;
2123;SDS011;1068;52.460;13.528;2023-02-28T01:35:41;8.07;;;6.57;;
2123;SDS011;1068;52.460;13.528;2023-02-28T01:38:08;8.95;;;7.15;;
2123;SDS011;1068;52.460;13.528;2023-02-28T01:40:34;6.80;;;6.20;;
2123;SDS011;1068;52.460;13.528;2023-02-28T01:43:01;7.70;;;6.75;;
2123;SDS011;1068;52.460;13.528;2023-02-28T01:45:28;11.65;;;7.70;;
2123;SDS011;1068;52.460;13.528;2023-02-28T01:47:57;8.95;;;7.88;;
2123;SDS011;1068;52.460;13.528;2023-02-28T01:50:30;9.40;;;8.05;;
2123;SDS011;1068;52.460;13.528;2023-02-28T01:53:00;9.23;;;7.28;;
2123;SDS011;1068;52.460;13.528;2023-02-28T01:55:30;9.30;;;7.13;;
2123;SDS011;1068;52.460;13.528;2023-02-28T01:57:58;10.18;;;7.97;;
2123;SDS011;1068;52.460;13.528;2023-02-28T02:00:28;7.05;;;6.43;;
2123;SDS011;1068;52.460;13.528;2023-02-28T02:02:56;15.68;;;8.00;;
2123;SDS011;1068;52.460;13.528;2023-02-28T02:05:26;9.50;;;7.93;;
2123;SDS011;1068;52.460;13.528;2023-02-28T02:07:57;10.77;;;7.88;;
2123;SDS011;1068;52.460;13.528;2023-02-28T02:10:29;7.80;;;7.00;;
2123;SDS011;1068;52.460;13.528;2023-02-28T02:13:02;8.48;;;6.88;;
2123;SDS011;1068;52.460;13.528;2023-02-28T02:15:49;7.43;;;6.65;;
2123;SDS011;1068;52.460;13.528;2023-02-28T02:18:26;8.02;;;6.32;;
2123;SDS011;1068;52.460;13.528;2023-02-28T02:27:18;8.65;;;7.00;;
2123;SDS011;1068;52.460;13.528;2023-02-28T02:30:01;7.78;;;6.85;;
2123;SDS011;1068;52.460;13.528;2023-02-28T02:32:47;8.75;;;6.22;;
2123;SDS011;1068;52.460;13.528;2023-02-28T02:35:30;7.20;;;6.50;;
2123;SDS011;1068;52.460;13.528;2023-02-28T02:38:02;7.55;;;6.75;;
2123;SDS011;1068;52.460;13.528;2023-02-28T02:40:35;11.68;;;7.30;;
2123;SDS011;1068;52.460;13.528;2023-02-28T02:43:06;7.25;;;6.57;;
2123;SDS011;1068;52.460;13.528;2023-02-28T02:45:39;11.02;;;7.88;;
2123;SDS011;1068;52.460;13.528;2023-02-28T02:48:11;8.18;;;7.10;;
2123;SDS011;1068;52.460;13.528;2023-02-28T02:50:43;8.13;;;6.70;;
2123;SDS011;1068;52.460;13.528;2023-02-28T02:53:12;8.27;;;7.05;;
2123;SDS011;1068;52.460;13.528;2023-02-28T02:55:42;7.50;;;6.20;;
2123;SDS011;1068;52.460;13.528;2023-02-28T02:58:13;8.60;;;6.90;;
2123;SDS011;1068;52.460;13.528;2023-02-28T03:00:43;7.55;;;5.97;;
2123;SDS011;1068;52.460;13.528;2023-02-28T03:03:13;7.68;;;6.15;;
2123;SDS011;1068;52.460;13.528;2023-02-28T03:05:44;7.63;;;6.22;;
2123;SDS011;1068;52.460;13.528;2023-02-28T03:08:12;6.80;;;6.20;;
2123;SDS011;1068;52.460;13.528;2023-02-28T03:10:40;8.05;;;6.35;;
2123;SDS011;1068;52.460;13.528;2023-02-28T03:16:07;8.55;;;5.30;;
2123;SDS011;1068;52.460;13.528;2023-02-28T03:18:54;6.53;;;5.85;;
2123;SDS011;1068;52.460;13.528;2023-02-28T03:21:31;6.40;;;5.80;;
2123;SDS011;1068;52.460;13.528;2023-02-28T03:24:03;8.68;;;5.65;;
2123;SDS011;1068;52.460;13.528;2023-02-28T03:26:31;7.90;;;6.60;;
2123;SDS011;1068;52.460;13.528;2023-02-28T03:29:02;8.77;;;6.65;;
2123;SDS011;1068;52.460;13.528;2023-02-28T03:31:36;7.63;;;5.60;;
2123;SDS011;1068;52.460;13.528;2023-02-28T03:34:06;8.30;;;5.80;;
2123;SDS011;1068;52.460;13.528;2023-02-28T03:36:38;6.95;;;6.28;;
2123;SDS011;1068;52.460;13.528;2023-02-28T03:39:10;6.68;;;5.85;;
2123;SDS011;1068;52.460;13.528;2023-02-28T03:41:42;10.07;;;6.82;;
2123;SDS011;1068;52.460;13.528;2023-02-28T03:44:15;6.60;;;5.90;;
2123;SDS011;1068;52.460;13.528;2023-02-28T03:46:46;9.88;;;6.72;;
2123;SDS011;1068;52.460;13.528;2023-02-28T03:49:18;6.53;;;5.75;;
2123;SDS011;1068;52.460;13.528;2023-02-28T03:51:49;6.55;;;6.05;;
2123;SDS011;1068;52.460;13.528;2023-02-28T03:54:18;6.00;;;5.25;;
2123;SDS011;1068;52.460;13.528;2023-02-28T03:56:51;7.85;;;6.15;;
2123;SDS011;1068;52.460;13.528;2023-02-28T03:59:22;7.10;;;6.25;;
2123;SDS011;1068;52.460;13.528;2023-02-28T04:01:54;7.18;;;5.78;;
2123;SDS011;1068;52.460;13.528;2023-02-28T04:04:23;5.93;;;5.38;;
2123;SDS011;1068;52.460;13.528;2023-02-28T04:06:51;6.07;;;5.47;;
2123;SDS011;1068;52.460;13.528;2023-02-28T04:09:18;6.35;;;5.75;;
2123;SDS011;1068;52.460;13.528;2023-02-28T04:11:45;6.80;;;6.10;;
2123;SDS011;1068;52.460;13.528;2023-02-28T04:14:16;6.80;;;6.07;;
2123;SDS011;1068;52.460;13.528;2023-02-28T04:16:43;7.20;;;5.38;;
2123;SDS011;1068;52.460;13.528;2023-02-28T04:19:10;9.93;;;5.70;;
2123;SDS011;1068;52.460;13.528;2023-02-28T04:21:38;5.63;;;5.07;;
2123;SDS011;1068;52.460;13.528;2023-02-28T04:24:08;6.50;;;5.90;;
2123;SDS011;1068;52.460;13.528;2023-02-28T04:26:39;8.73;;;5.45;;
2123;SDS011;1068;52.460;13.528;2023-02-28T04:29:08;6.43;;;5.65;;
2123;SDS011;1068;52.460;13.528;2023-02-28T04:31:35;6.53;;;5.78;;
2123;SDS011;1068;52.460;13.528;2023-02-28T04:34:02;7.35;;;6.18;;
2123;SDS011;1068;52.460;13.528;2023-02-28T04:36:29;6.97;;;4.90;;
2123;SDS011;1068;52.460;13.528;2023-02-28T04:38:55;5.53;;;4.95;;
2123;SDS011;1068;52.460;13.528;2023-02-28T04:41:23;6.50;;;5.00;;
2123;SDS011;1068;52.460;13.528;2023-02-28T04:43:50;6.25;;;5.40;;
2123;SDS011;1068;52.460;13.528;2023-02-28T04:46:17;7.85;;;5.45;;
2123;SDS011;1068;52.460;13.528;2023-02-28T04:48:43;6.63;;;5.38;;
2123;SDS011;1068;52.460;13.528;2023-02-28T04:51:11;8.95;;;5.50;;
2123;SDS011;1068;52.460;13.528;2023-02-28T04:53:39;7.18;;;6.40;;
2123;SDS011;1068;52.460;13.528;2023-02-28T04:56:07;6.05;;;4.93;;
2123;SDS011;1068;52.460;13.528;2023-02-28T04:58:37;5.30;;;4.80;;
2123;SDS011;1068;52.460;13.528;2023-02-28T05:01:05;6.07;;;4.97;;
2123;SDS011;1068;52.460;13.528;2023-02-28T05:03:37;6.53;;;5.72;;
2123;SDS011;1068;52.460;13.528;2023-02-28T05:06:05;8.05;;;6.05;;
2123;SDS011;1068;52.460;13.528;2023-02-28T05:08:32;5.80;;;5.30;;
2123;SDS011;1068;52.460;13.528;2023-02-28T05:10:58;6.28;;;4.85;;
2123;SDS011;1068;52.460;13.528;2023-02-28T05:13:25;5.45;;;4.50;;
2123;SDS011;1068;52.460;13.528;2023-02-28T05:15:54;7.45;;;5.22;;
2123;SDS011;1068;52.460;13.528;2023-02-28T05:18:20;4.93;;;4.50;;
2123;SDS011;1068;52.460;13.528;2023-02-28T05:20:47;5.70;;;4.90;;
2123;SDS011;1068;52.460;13.528;2023-02-28T05:23:14;7.90;;;5.57;;
2123;SDS011;1068;52.460;13.528;2023-02-28T05:25:42;6.07;;;4.97;;
2123;SDS011;1068;52.460;13.528;2023-02-28T05:28:09;6.35;;;4.63;;
2123;SDS011;1068;52.460;13.528;2023-02-28T05:30:35;5.10;;;4.60;;
2123;SDS011;1068;52.460;13.528;2023-02-28T05:33:03;6.88;;;5.10;;
2123;SDS011;1068;52.460;13.528;2023-02-28T05:35:30;6.97;;;5.10;;
2123;SDS011;1068;52.460;13.528;2023-02-28T05:37:56;4.93;;;4.45;;
2123;SDS011;1068;52.460;13.528;2023-02-28T05:40:23;4.35;;;3.95;;
2123;SDS011;1068;52.460;13.528;2023-02-28T05:42:49;5.60;;;4.78;;
2123;SDS011;1068;52.460;13.528;2023-02-28T05:45:16;6.22;;;5.05;;
2123;SDS011;1068;52.460;13.528;2023-02-28T05:47:43;11.32;;;6.10;;
2123;SDS011;1068;52.460;13.528;2023-02-28T05:50:11;6.18;;;4.80;;
2123;SDS011;1068;52.460;13.528;2023-02-28T05:52:37;5.43;;;4.93;;
2123;SDS011;1068;52.460;13.528;2023-02-28T05:55:04;6.07;;;5.05;;
2123;SDS011;1068;52.460;13.528;2023-02-28T05:57:31;6.72;;;4.43;;
2123;SDS011;1068;52.460;13.528;2023-02-28T05:59:58;7.60;;;4.65;;
2123;SDS011;1068;52.460;13.528;2023-02-28T06:02:24;6.22;;;5.00;;
2123;SDS011;1068;52.460;13.528;2023-02-28T06:04:51;7.93;;;4.55;;
2123;SDS011;1068;52.460;13.528;2023-02-28T06:07:18;5.20;;;4.70;;
2123;SDS011;1068;52.460;13.528;2023-02-28T06:09:47;6.03;;;4.78;;
2123;SDS011;1068;52.460;13.528;2023-02-28T06:12:13;4.55;;;4.15;;
2123;SDS011;1068;52.460;13.528;2023-02-28T06:14:40;5.50;;;4.40;;
2123;SDS011;1068;52.460;13.528;2023-02-28T06:17:06;5.57;;;5.07;;
2123;SDS011;1068;52.460;13.528;2023-02-28T06:19:34;6.35;;;5.75;;
2123;SDS011;1068;52.460;13.528;2023-02-28T06:22:03;6.40;;;4.97;;
2123;SDS011;1068;52.460;13.528;2023-02-28T06:24:31;10.20;;;6.78;;
2123;SDS011;1068;52.460;13.528;2023-02-28T06:26:58;6.10;;;5.50;;
2123;SDS011;1068;52.460;13.528;2023-02-28T06:29:29;10.05;;;5.82;;
2123;SDS011;1068;52.460;13.528;2023-02-28T06:31:56;7.32;;;5.93;;
2123;SDS011;1068;52.460;13.528;2023-02-28T06:34:23;6.25;;;5.00;;
2123;SDS011;1068;52.460;13.528;2023-02-28T06:36:50;6.57;;;5.70;;
2123;SDS011;1068;52.460;13.528;2023-02-28T06:39:17;8.52;;;5.95;;
2123;SDS011;1068;52.460;13.528;2023-02-28T06:41:45;6.95;;;6.20;;
2123;SDS011;1068;52.460;13.528;2023-02-28T06:44:13;7.10;;;5.60;;
2123;SDS011;1068;52.460;13.528;2023-02-28T06:46:41;10.20;;;5.80;;
2123;SDS011;1068;52.460;13.528;2023-02-28T06:49:09;9.57;;;5.88;;
2123;SDS011;1068;52.460;13.528;2023-02-28T06:51:36;8.73;;;6.95;;
2123;SDS011;1068;52.460;13.528;2023-02-28T06:54:04;12.02;;;6.90;;
2123;SDS011;1068;52.460;13.528;2023-02-28T06:56:33;9.10;;;5.95;;
2123;SDS011;1068;52.460;13.528;2023-02-28T06:59:01;9.10;;;6.88;;
2123;SDS011;1068;52.460;13.528;2023-02-28T07:01:28;10.68;;;7.63;;
2123;SDS011;1068;52.460;13.528;2023-02-28T07:03:56;9.45;;;6.85;;
2123;SDS011;1068;52.460;13.528;2023-02-28T07:06:23;12.45;;;7.95;;
2123;SDS011;1068;52.460;13.528;2023-02-28T07:08:50;11.82;;;6.68;;
2123;SDS011;1068;52.460;13.528;2023-02-28T07:11:18;7.40;;;6.35;;
2123;SDS011;1068;52.460;13.528;2023-02-28T07:13:44;10.85;;;7.53;;
2123;SDS011;1068;52.460;13.528;2023-02-28T07:16:13;8.15;;;7.30;;
2123;SDS011;1068;52.460;13.528;2023-02-28T07:18:40;9.52;;;7.38;;
2123;SDS011;1068;52.460;13.528;2023-02-28T07:21:07;12.50;;;7.80;;
2123;SDS011;1068;52.460;13.528;2023-02-28T07:23:35;12.45;;;8.45;;
2123;SDS011;1068;52.460;13.528;2023-02-28T07:26:03;13.43;;;9.40;;
2123;SDS011;1068;52.460;13.528;2023-02-28T07:28:30;15.13;;;9.23;;
2123;SDS011;1068;52.460;13.528;2023-02-28T07:30:56;12.90;;;9.10;;
2123;SDS011;1068;52.460;13.528;2023-02-28T07:33:24;15.88;;;10.40;;
2123;SDS011;1068;52.460;13.528;2023-02-28T07:35:50;16.50;;;9.45;;
2123;SDS011;1068;52.460;13.528;2023-02-28T07:38:17;14.63;;;10.35;;
2123;SDS011;1068;52.460;13.528;2023-02-28T07:40:43;11.02;;;7.88;;
2123;SDS011;1068;52.460;13.528;2023-02-28T07:43:10;12.13;;;8.82;;
2123;SDS011;1068;52.460;13.528;2023-02-28T07:45:36;11.55;;;7.53;;
2123;SDS011;1068;52.460;13.528;2023-02-28T07:48:03;9.10;;;7.45;;
2123;SDS011;1068;52.460;13.528;2023-02-28T07:50:31;12.73;;;9.35;;
2123;SDS011;1068;52.460;13.528;2023-02-28T07:52:57;10.32;;;7.38;;
2123;SDS011;1068;52.460;13.528;2023-02-28T07:55:24;9.07;;;6.28;;
2123;SDS011;1068;52.460;13.528;2023-02-28T07:57:51;8.68;;;6.03;;
2123;SDS011;1068;52.460;13.528;2023-02-28T08:00:18;7.30;;;5.45;;
2123;SDS011;1068;52.460;13.528;2023-02-28T08:02:44;5.72;;;5.10;;
2123;SDS011;1068;52.460;13.528;2023-02-28T08:05:11;5.03;;;4.50;;
2123;SDS011;1068;52.460;13.528;2023-02-28T08:07:39;5.75;;;4.82;;
2123;SDS011;1068;52.460;13.528;2023-02-28T08:10:06;7.85;;;5.55;;
2123;SDS011;1068;52.460;13.528;2023-02-28T08:12:34;6.90;;;4.70;;
2123;SDS011;1068;52.460;13.528;2023-02-28T08:15:01;4.60;;;4.10;;
2123;SDS011;1068;52.460;13.528;2023-02-28T08:17:27;6.72;;;4.45;;
2123;SDS011;1068;52.460;13.528;2023-02-28T08:19:54;8.70;;;4.75;;
2123;SDS011;1068;52.460;13.528;2023-02-28T08:22:20;5.68;;;4.68;;
2123;SDS011;1068;52.460;13.528;2023-02-28T08:24:48;7.07;;;5.28;;
2123;SDS011;1068;52.460;13.528;2023-02-28T08:27:15;13.75;;;5.00;;
2123;SDS011;1068;52.460;13.528;2023-02-28T08:29:42;5.25;;;4.75;;
2123;SDS011;1068;52.460;13.528;2023-02-28T08:32:08;7.90;;;4.68;;
2123;SDS011;1068;52.460;13.528;2023-02-28T08:34:35;8.25;;;4.50;;
2123;SDS011;1068;52.460;13.528;2023-02-28T08:37:01;5.65;;;3.95;;
2123;SDS011;1068;52.460;13.528;2023-02-28T08:39:28;8.68;;;4.10;;
2123;SDS011;1068;52.460;13.528;2023-02-28T08:41:56;6.97;;;4.10;;
2123;SDS011;1068;52.460;13.528;2023-02-28T08:44:22;6.60;;;4.30;;
2123;SDS011;1068;52.460;13.528;2023-02-28T08:46:49;6.03;;;4.35;;
2123;SDS011;1068;52.460;13.528;2023-02-28T08:49:15;9.23;;;4.57;;
2123;SDS011;1068;52.460;13.528;2023-02-28T08:51:41;4.70;;;3.40;;
2123;SDS011;1068;52.460;13.528;2023-02-28T08:54:08;10.55;;;4.03;;
2123;SDS011;1068;52.460;13.528;2023-02-28T08:56:37;5.10;;;3.50;;
2123;SDS011;1068;52.460;13.528;2023-02-28T08:59:05;15.63;;;4.78;;
2123;SDS011;1068;52.460;13.528;2023-02-28T09:01:32;4.18;;;3.47;;
2123;SDS011;1068;52.460;13.528;2023-02-28T09:03:58;5.95;;;3.95;;
2123;SDS011;1068;52.460;13.528;2023-02-28T09:06:26;9.40;;;4.05;;
2123;SDS011;1068;52.460;13.528;2023-02-28T09:08:55;21.65;;;5.15;;
2123;SDS011;1068;52.460;13.528;2023-02-28T09:11:24;9.80;;;4.07;;
2123;SDS011;1068;52.460;13.528;2023-02-28T09:13:50;7.10;;;3.95;;
2123;SDS011;1068;52.460;13.528;2023-02-28T09:16:18;15.52;;;4.28;;
2123;SDS011;1068;52.460;13.528;2023-02-28T09:18:44;3.55;;;2.63;;
2123;SDS011;1068;52.460;13.528;2023-02-28T09:21:12;3.25;;;2.42;;
2123;SDS011;1068;52.460;13.528;2023-02-28T09:23:40;3.05;;;2.75;;
2123;SDS011;1068;52.460;13.528;2023-02-28T09:26:07;6.15;;;2.95;;
2123;SDS011;1068;52.460;13.528;2023-02-28T09:28:39;3.05;;;2.30;;
2123;SDS011;1068;52.460;13.528;2023-02-28T09:31:05;2.88;;;2.38;;
2123;SDS011;1068;52.460;13.528;2023-02-28T09:33:33;3.03;;;1.95;;
2123;SDS011;1068;52.460;13.528;2023-02-28T09:36:00;1.65;;;1.40;;
2123;SDS011;1068;52.460;13.528;2023-02-28T09:38:28;5.43;;;2.00;;
2123;SDS011;1068;52.460;13.528;2023-02-28T09:40:55;2.20;;;2.00;;
2123;SDS011;1068;52.460;13.528;2023-02-28T09:43:25;6.03;;;2.30;;
2123;SDS011;1068;52.460;13.528;2023-02-28T09:45:55;1.77;;;1.17;;
2123;SDS011;1068;52.460;13.528;2023-02-28T09:48:28;7.00;;;1.92;;
2123;SDS011;1068;52.460;13.528;2023-02-28T09:51:02;2.42;;;1.60;;
2123;SDS011;1068;52.460;13.528;2023-02-28T09:53:31;2.22;;;2.00;;
2123;SDS011;1068;52.460;13.528;2023-02-28T09:56:01;3.40;;;2.30;;
2123;SDS011;1068;52.460;13.528;2023-02-28T09:58:32;2.40;;;2.20;;
2123;SDS011;1068;52.460;13.528;2023-02-28T10:01:05;7.57;;;2.55;;
2123;SDS011;1068;52.460;13.528;2023-02-28T10:03:38;2.20;;;2.00;;
2123;SDS011;1068;52.460;13.528;2023-02-28T10:06:12;2.25;;;2.05;;
2123;SDS011;1068;52.460;13.528;2023-02-28T10:08:43;1.55;;;1.35;;
2123;SDS011;1068;52.460;13.528;2023-02-28T10:11:16;3.05;;;1.60;;
2123;SDS011;1068;52.460;13.528;2023-02-28T10:13:49;2.40;;;1.70;;
2123;SDS011;1068;52.460;13.528;2023-02-28T10:16:20;4.30;;;1.95;;
2123;SDS011;1068;52.460;13.528;2023-02-28T10:18:52;3.90;;;2.00;;
2123;SDS011;1068;52.460;13.528;2023-02-28T10:21:26;2.60;;;1.65;;
2123;SDS011;1068;52.460;13.528;2023-02-28T10:24:02;3.75;;;2.08;;
2123;SDS011;1068;52.460;13.528;2023-02-28T10:26:31;2.67;;;2.13;;
2123;SDS011;1068;52.460;13.528;2023-02-28T10:28:58;2.95;;;1.80;;
2123;SDS011;1068;52.460;13.528;2023-02-28T10:31:25;6.10;;;2.33;;
2123;SDS011;1068;52.460;13.528;2023-02-28T10:33:51;2.30;;;2.10;;
2123;SDS011;1068;52.460;13.528;2023-02-28T10:36:19;3.38;;;2.25;;
2123;SDS011;1068;52.460;13.528;2023-02-28T10:38:48;2.90;;;2.13;;
2123;SDS011;1068;52.460;13.528;2023-02-28T10:41:15;4.15;;;2.70;;
2123;SDS011;1068;52.460;13.528;2023-02-28T10:43:52;3.30;;;2.65;;
2123;SDS011;1068;52.460;13.528;2023-02-28T10:46:19;2.45;;;2.00;;
2123;SDS011;1068;52.460;13.528;2023-02-28T10:48:57;3.03;;;2.65;;
2123;SDS011;1068;52.460;13.528;2023-02-28T10:51:27;2.85;;;1.90;;
2123;SDS011;1068;52.460;13.528;2023-02-28T10:54:03;2.60;;;1.98;;
2123;SDS011;1068;52.460;13.528;2023-02-28T10:56:30;5.68;;;2.58;;
2123;SDS011;1068;52.460;13.528;2023-02-28T10:58:58;2.10;;;1.90;;
2123;SDS011;1068;52.460;13.528;2023-02-28T11:01:34;2.17;;;1.88;;
2123;SDS011;1068;52.460;13.528;2023-02-28T11:04:02;3.17;;;2.33;;
2123;SDS011;1068;52.460;13.528;2023-02-28T11:06:29;2.20;;;2.00;;
2123;SDS011;1068;52.460;13.528;2023-02-28T11:08:58;3.38;;;2.17;;
2123;SDS011;1068;52.460;13.528;2023-02-28T11:11:29;6.03;;;1.95;;
2123;SDS011;1068;52.460;13.528;2023-02-28T11:13:57;3.17;;;1.73;;
2123;SDS011;1068;52.460;13.528;2023-02-28T11:16:33;3.20;;;1.90;;
2123;SDS011;1068;52.460;13.528;2023-02-28T11:19:02;2.92;;;2.40;;
2123;SDS011;1068;52.460;13.528;2023-02-28T11:21:31;3.95;;;2.10;;
2123;SDS011;1068;52.460;13.528;2023-02-28T11:24:01;4.00;;;2.40;;
2123;SDS011;1068;52.460;13.528;2023-02-28T11:26:38;2.87;;;1.90;;
2123;SDS011;1068;52.460;13.528;2023-02-28T11:29:10;2.00;;;1.90;;
2123;SDS011;1068;52.460;13.528;2023-02-28T11:32:03;2.38;;;2.17;;
2123;SDS011;1068;52.460;13.528;2023-02-28T11:34:42;2.40;;;2.05;;
2123;SDS011;1068;52.460;13.528;2023-02-28T11:37:11;2.93;;;2.10;;
2123;SDS011;1068;52.460;13.528;2023-02-28T11:39:39;4.50;;;2.70;;
2123;SDS011;1068;52.460;13.528;2023-02-28T11:45:08;7.03;;;2.22;;
2123;SDS011;1068;52.460;13.528;2023-02-28T11:47:44;4.35;;;2.10;;
2123;SDS011;1068;52.460;13.528;2023-02-28T11:50:20;2.67;;;2.47;;
2123;SDS011;1068;52.460;13.528;2023-02-28T11:52:59;2.20;;;2.00;;
2123;SDS011;1068;52.460;13.528;2023-02-28T11:55:31;3.50;;;2.83;;
2123;SDS011;1068;52.460;13.528;2023-02-28T11:58:07;3.00;;;2.70;;
2123;SDS011;1068;52.460;13.528;2023-02-28T12:00:54;2.47;;;2.28;;
2123;SDS011;1068;52.460;13.528;2023-02-28T12:03:31;2.72;;;2.50;;
2123;SDS011;1068;52.460;13.528;2023-02-28T12:06:07;2.70;;;2.17;;
2123;SDS011;1068;52.460;13.528;2023-02-28T12:08:47;3.35;;;2.20;;
2123;SDS011;1068;52.460;13.528;2023-02-28T12:11:25;2.22;;;1.98;;
2123;SDS011;1068;52.460;13.528;2023-02-28T12:14:06;7.03;;;2.65;;
2123;SDS011;1068;52.460;13.528;2023-02-28T12:16:46;3.83;;;2.53;;
2123;SDS011;1068;52.460;13.528;2023-02-28T12:19:20;3.93;;;2.67;;
2123;SDS011;1068;52.460;13.528;2023-02-28T12:27:40;2.93;;;2.33;;
2123;SDS011;1068;52.460;13.528;2023-02-28T12:30:14;3.97;;;2.40;;
2123;SDS011;1068;52.460;13.528;2023-02-28T12:32:45;3.20;;;3.00;;
2123;SDS011;1068;52.460;13.528;2023-02-28T12:35:16;2.47;;;2.23;;
2123;SDS011;1068;52.460;13.528;2023-02-28T12:37:49;2.43;;;2.20;;
2123;SDS011;1068;52.460;13.528;2023-02-28T12:40:19;4.50;;;2.37;;
2123;SDS011;1068;52.460;13.528;2023-02-28T12:42:48;3.60;;;2.07;;
2123;SDS011;1068;52.460;13.528;2023-02-28T12:45:19;3.00;;;2.33;;
2123;SDS011;1068;52.460;13.528;2023-02-28T12:47:49;2.67;;;2.30;;
2123;SDS011;1068;52.460;13.528;2023-02-28T12:50:18;2.47;;;2.27;;
2123;SDS011;1068;52.460;13.528;2023-02-28T12:52:48;5.00;;;2.30;;
2123;SDS011;1068;52.460;13.528;2023-02-28T12:55:23;2.97;;;2.50;;
2123;SDS011;1068;52.460;13.528;2023-02-28T12:57:57;2.30;;;2.10;;
2123;SDS011;1068;52.460;13.528;2023-02-28T13:00:31;4.00;;;2.95;;
2123;SDS011;1068;52.460;13.528;2023-02-28T13:06:05;2.70;;;2.50;;
2123;SDS011;1068;52.460;13.528;2023-02-28T13:08:52;2.75;;;2.38;;
2123;SDS011;1068;52.460;13.528;2023-02-28T13:11:31;3.08;;;2.55;;
2123;SDS011;1068;52.460;13.528;2023-02-28T13:14:00;3.63;;;2.47;;
2123;SDS011;1068;52.460;13.528;2023-02-28T13:19:17;5.63;;;3.47;;
2123;SDS011;1068;52.460;13.528;2023-02-28T13:21:46;3.50;;;2.20;;
2123;SDS011;1068;52.460;13.528;2023-02-28T13:24:36;2.67;;;2.40;;
2123;SDS011;1068;52.460;13.528;2023-02-28T13:27:19;4.07;;;2.33;;
2123;SDS011;1068;52.460;13.528;2023-02-28T13:29:57;5.30;;;2.80;;
2123;SDS011;1068;52.460;13.528;2023-02-28T13:32:32;3.03;;;2.70;;
2123;SDS011;1068;52.460;13.528;2023-02-28T13:44:05;4.80;;;3.20;;
2123;SDS011;1068;52.460;13.528;2023-02-28T13:46:33;9.73;;;2.90;;
2123;SDS011;1068;52.460;13.528;2023-02-28T13:49:23;3.27;;;2.97;;
2123;SDS011;1068;52.460;13.528;2023-02-28T13:51:52;3.30;;;3.00;;
2123;SDS011;1068;52.460;13.528;2023-02-28T13:54:31;3.30;;;2.57;;
2123;SDS011;1068;52.460;13.528;2023-02-28T13:57:12;2.97;;;2.60;;
2123;SDS011;1068;52.460;13.528;2023-02-28T13:59:50;4.80;;;2.63;;
2123;SDS011;1068;52.460;13.528;2023-02-28T14:02:34;3.05;;;2.63;;
2123;SDS011;1068;52.460;13.528;2023-02-28T14:05:15;4.30;;;3.27;;
2123;SDS011;1068;52.460;13.528;2023-02-28T14:07:45;3.20;;;2.90;;
2123;SDS011;1068;52.460;13.528;2023-02-28T14:10:22;3.33;;;2.55;;
2123;SDS011;1068;52.460;13.528;2023-02-28T14:12:53;3.80;;;2.80;;
2123;SDS011;1068;52.460;13.528;2023-02-28T14:15:30;5.73;;;3.07;;
2123;SDS011;1068;52.460;13.528;2023-02-28T14:18:20;4.33;;;3.23;;
2123;SDS011;1068;52.460;13.528;2023-02-28T14:20:52;9.00;;;3.53;;
2123;SDS011;1068;52.460;13.528;2023-02-28T14:23:26;4.87;;;2.83;;
2123;SDS011;1068;52.460;13.528;2023-02-28T14:26:06;3.23;;;2.93;;
2123;SDS011;1068;52.460;13.528;2023-02-28T14:28:47;3.83;;;3.20;;
2123;SDS011;1068;52.460;13.528;2023-02-28T14:31:28;3.20;;;2.40;;
2123;SDS011;1068;52.460;13.528;2023-02-28T14:34:04;3.70;;;2.93;;
2123;SDS011;1068;52.460;13.528;2023-02-28T14:36:44;2.78;;;2.58;;
2123;SDS011;1068;52.460;13.528;2023-02-28T14:39:11;3.50;;;2.90;;
2123;SDS011;1068;52.460;13.528;2023-02-28T14:41:41;4.17;;;2.73;;
2123;SDS011;1068;52.460;13.528;2023-02-28T14:44:15;2.70;;;2.50;;
2123;SDS011;1068;52.460;13.528;2023-02-28T14:46:43;4.87;;;2.73;;
2123;SDS011;1068;52.460;13.528;2023-02-28T14:49:13;3.40;;;3.10;;
2123;SDS011;1068;52.460;13.528;2023-02-28T14:52:02;3.67;;;3.00;;
2123;SDS011;1068;52.460;13.528;2023-02-28T14:54:34;2.80;;;2.50;;
2123;SDS011;1068;52.460;13.528;2023-02-28T14:57:01;4.17;;;2.90;;
2123;SDS011;1068;52.460;13.528;2023-02-28T14:59:28;2.80;;;2.40;;
2123;SDS011;1068;52.460;13.528;2023-02-28T15:02:19;6.17;;;2.80;;
2123;SDS011;1068;52.460;13.528;2023-02-28T15:04:54;3.67;;;2.40;;
2123;SDS011;1068;52.460;13.528;2023-02-28T15:07:23;5.57;;;3.30;;
2123;SDS011;1068;52.460;13.528;2023-02-28T15:10:07;3.15;;;2.85;;
2123;SDS011;1068;52.460;13.528;2023-02-28T15:12:35;5.10;;;2.80;;
2123;SDS011;1068;52.460;13.528;2023-02-28T15:15:03;3.03;;;2.77;;
2123;SDS011;1068;52.460;13.528;2023-02-28T15:17:30;3.03;;;2.60;;
2123;SDS011;1068;52.460;13.528;2023-02-28T15:19:56;3.53;;;2.70;;
2123;SDS011;1068;52.460;13.528;2023-02-28T15:22:26;4.50;;;3.23;;
2123;SDS011;1068;52.460;13.528;2023-02-28T15:24:56;3.88;;;2.72;;
2123;SDS011;1068;52.460;13.528;2023-02-28T15:27:23;5.37;;;3.13;;
2123;SDS011;1068;52.460;13.528;2023-02-28T15:29:53;4.93;;;3.15;;
2123;SDS011;1068;52.460;13.528;2023-02-28T15:32:27;3.70;;;3.33;;
2123;SDS011;1068;52.460;13.528;2023-02-28T15:34:56;4.27;;;2.90;;
2123;SDS011;1068;52.460;13.528;2023-02-28T15:37:27;3.05;;;2.85;;
2123;SDS011;1068;52.460;13.528;2023-02-28T15:39:56;5.53;;;3.47;;
2123;SDS011;1068;52.460;13.528;2023-02-28T15:42:27;4.05;;;3.00;;
2123;SDS011;1068;52.460;13.528;2023-02-28T15:44:56;3.57;;;3.27;;
2123;SDS011;1068;52.460;13.528;2023-02-28T15:47:25;3.90;;;3.23;;
2123;SDS011;1068;52.460;13.528;2023-02-28T15:49:54;5.05;;;3.05;;